< < Back
Terminal Aerodrome Forecast


Current Version              Previous Versions:   1  2  3  4  5  6  7  8  9  

Terminal Aerodrome Forecast

452
FTUS44 KHUN 012320
TAFHSV
TAF
KHSV 012320Z 0200/0224 VRB03KT P6SM FEW070
     FM020200 14002KT P6SM SKC
     FM021700 17007KT P6SM SCT040 BKN100=



Latest METAR

489
SAUS80 KWBC 021200 RRC
MTRHSV
METAR KHSV 021153Z 10003KT 10SM FEW100 19/16 A3005 RMK AO2 SLP168
T01890156 10200 20178 53014


USA.gov is the U.S. government's official web portal to all federal, state and local government web resources and services.